Terminal Aerodrome Forecast
Issued by NWS Huntsville, AL

Home | Current Version | Previous Version | Text Only | Print | Product List | Glossary On
Versions: 1 2 3 4 5 6 7 8 9 10 11 12 13 14 15 16
000
FTUS44 KHUN 170520
TAFHSV
TAF
KHSV 170520Z 1706/1806 20004KT P6SM FEW025 FEW150 SCT250
     FM170900 20004KT P6SM BKN025
      TEMPO 1709/1713 6SM BR BKN015
     FM171500 22010KT P6SM BKN035
     FM171800 24010KT P6SM VCTS BKN050CB BKN150 BKN250=

USA.gov is the U.S. government's official web portal to all federal, state and local government web resources and services.